Latest Coastal Weather Observations for Point Stuart

IDD60701

Issued at 4:21 am CST Sunday 31 July 2016 (issued every 10 minutes, with the page automatically refreshed every 10 minutes)

About coastal observations | Map of coastal stations | Coastal observations for NT | Marine services | Other Formats
Station Details ID: 014254 Name: POINT STUART Lat: -12.24 Lon: 131.88 Height: 1.0 m
Data from the previous 72 hours. | See also: Recent months at Point Stuart
Date/Time
CST
Temp
°C
Wind Pressure Rain since
9am
mm
Weather Cloud Vis
km
Sea
Height
m
Swell
Dir  Spd
kts
Gust
kts
hPa Trend Height
m
Period
s
Dir
31/04:00am 17.7 CALM 0 0 1011.2 - 0.0 - - - - - - -
31/03:30am 18.2 S 4 6 1011.1 - 0.0 - - - - - - -
31/03:00am 18.5 S 5 6 1011.2 - 0.0 - - - - - - -
31/02:30am 18.4 S 6 7 1011.4 - 0.0 - - - - - - -
31/02:00am 19.0 S 4 5 1011.8 - 0.0 - - - - - - -
31/01:30am 19.0 S 3 5 1012.2 - 0.0 - - - - - - -
31/01:00am 19.1 SSW 5 6 1012.2 - 0.0 - - - - - - -
31/12:30am 20.0 SSW 4 5 1012.5 - 0.0 - - - - - - -
31/12:00am 20.7 CALM 0 0 1012.5 - 0.0 - - - - - - -
 
Date/Time
CST
Temp
°C
Wind Pressure Rain since
9am
mm
Weather Cloud Vis
km
Sea
Height
m
Swell
Dir  Spd
kts
Gust
kts
hPa Trend Height
m
Period
s
Dir
30/11:30pm 20.7 S 6 8 1012.5 - 0.0 - - - - - - -
30/11:00pm 21.2 SE 3 4 1012.5 - 0.0 - - - - - - -
30/10:30pm 21.1 S 3 4 1012.2 - 0.0 - - - - - - -
30/10:00pm 21.2 SSW 6 8 1011.9 - 0.0 - - - - - - -
30/09:30pm 21.5 CALM 0 0 1011.8 - 0.0 - - - - - - -
30/09:00pm 23.1 SW 1 3 1011.7 - 0.0 - - - - - - -
30/08:30pm 23.3 SSW 3 4 1011.4 - 0.0 - - - - - - -
30/08:00pm 23.4 SSW 4 6 1011.0 - 0.0 - - - - - - -
30/07:30pm 24.7 W 4 6 1010.7 - 0.0 - - - - - - -
30/07:00pm 26.0 W 4 6 1010.3 - 0.0 - - - - - - -
30/06:30pm 28.1 N 3 4 1009.8 - 0.0 - - - - - - -
30/06:00pm 29.7 N 5 7 1009.6 - 0.0 - - - - - - -
30/05:30pm 30.8 N 4 6 1009.3 - 0.0 - - - - - - -
30/05:00pm 31.7 NE 7 11 1009.1 - 0.0 - - - - - - -
30/04:30pm 31.9 NNE 6 8 1009.0 - 0.0 - - - - - - -
30/04:00pm 31.6 NNE 7 10 1009.1 - 0.0 - - - - - - -
30/03:30pm 31.8 NNE 8 11 1009.3 - 0.0 - - - - - - -
30/03:00pm 31.8 NE 10 13 1009.6 - 0.0 - - - - - - -
30/02:30pm 31.9 NE 9 12 1010.1 - 0.0 - - - - - - -
30/02:00pm 32.0 NNE 8 11 1010.6 - 0.0 - - - - - - -
30/01:30pm 32.4 ENE 9 14 1011.2 - 0.0 - - - - - - -
30/01:00pm 31.9 E 12 17 1011.7 - 0.0 - - - - - - -
30/12:30pm 31.2 E 12 16 1012.3 - 0.0 - - - - - - -
30/12:00pm 30.6 E 12 17 1012.7 - 0.0 - - - - - - -
30/11:30am 30.4 E 13 17 1013.1 - 0.0 - - - - - - -
30/11:00am 29.3 E 14 18 1013.5 - 0.0 - - - - - - -
30/10:30am 28.5 ESE 13 16 1013.8 - 0.0 - - - - - - -
30/10:00am 27.6 E 15 21 1013.9 - 0.0 - - - - - - -
30/09:37am 27.4 ESE 15 25 1014.0 - 0.0 - - - - - - -
30/09:30am 27.4 ESE 13 18 1013.9 - 0.0 - - - - - - -
30/09:00am 25.1 E 11 16 1013.8 - 0.0 - - - - - - -
30/08:30am 23.7 ESE 10 14 1013.6 - 0.0 - - - - - - -
30/08:00am 21.6 SE 9 12 1013.5 - 0.0 - - - - - - -
30/07:30am 18.3 SSE 6 9 1013.1 - 0.0 - - - - - - -
30/07:00am 18.3 SE 7 8 1012.9 - 0.0 - - - - - - -
30/06:30am 18.5 ESE 6 7 1012.6 - 0.0 - - - - - - -
30/06:00am 18.5 ESE 5 6 1012.3 - 0.0 - - - - - - -
30/05:30am 18.9 SE 6 7 1012.1 - 0.0 - - - - - - -
30/05:00am 18.8 SE 6 7 1012.1 - 0.0 - - - - - - -
30/04:30am 19.2 ESE 5 6 1011.9 - 0.0 - - - - - - -
30/04:00am 19.6 ESE 6 7 1011.9 - 0.0 - - - - - - -
30/03:30am 20.3 ESE 5 6 1012.0 - 0.0 - - - - - - -
30/03:00am 21.4 ESE 8 11 1012.0 - 0.0 - - - - - - -
30/02:30am 21.1 E 7 9 1012.1 - 0.0 - - - - - - -
30/02:00am 22.3 ESE 7 10 1012.1 - 0.0 - - - - - - -
30/01:30am 23.0 SE 8 10 1012.3 - 0.0 - - - - - - -
30/01:00am 22.9 SE 9 11 1012.4 - 0.0 - - - - - - -
30/12:30am 19.6 SSE 7 8 1012.5 - 0.0 - - - - - - -
30/12:00am 19.5 S 5 6 1012.7 - 0.0 - - - - - - -
 
Date/Time
CST
Temp
°C
Wind Pressure Rain since
9am
mm
Weather Cloud Vis
km
Sea
Height
m
Swell
Dir  Spd
kts
Gust
kts
hPa Trend Height
m
Period
s
Dir
29/11:30pm 19.6 SSW 6 6 1012.9 - 0.0 - - - - - - -
29/11:00pm 20.5 S 6 7 1013.2 - 0.0 - - - - - - -
29/10:30pm 21.1 S 5 6 1013.0 - 0.0 - - - - - - -
29/10:00pm 22.1 S 5 6 1012.9 - 0.0 - - - - - - -
29/09:30pm 22.3 S 6 7 1012.6 - 0.0 - - - - - - -
29/09:00pm 22.8 S 5 7 1012.3 - 0.0 - - - - - - -
29/08:30pm 23.5 SSE 2 4 1011.8 - 0.0 - - - - - - -
29/08:00pm 24.2 CALM 0 0 1011.5 - 0.0 - - - - - - -
29/07:30pm 25.3 CALM 0 0 1011.2 - 0.0 - - - - - - -
29/07:00pm 26.5 N 1 4 1010.7 - 0.0 - - - - - - -
29/06:30pm 28.7 N 1 3 1010.3 - 0.0 - - - - - - -
29/06:00pm 29.9 N 1 4 1010.2 - 0.0 - - - - - - -
29/05:30pm 30.7 NNE 3 6 1010.0 - 0.0 - - - - - - -
29/05:00pm 31.5 NNE 7 11 1009.9 - 0.0 - - - - - - -
29/04:30pm 32.5 ENE 11 14 1009.9 - 0.0 - - - - - - -
29/04:00pm 32.7 E 10 14 1010.0 - 0.0 - - - - - - -
29/03:30pm 33.1 ENE 11 15 1010.0 - 0.0 - - - - - - -
29/03:00pm 33.5 E 11 17 1010.2 - 0.0 - - - - - - -
29/02:30pm 33.4 ESE 11 19 1010.4 - 0.0 - - - - - - -
29/02:00pm 32.8 E 12 16 1010.9 - 0.0 - - - - - - -
29/01:30pm 32.4 ESE 13 19 1011.4 - 0.0 - - - - - - -
29/01:00pm 32.2 SE 12 17 1011.7 - 0.0 - - - - - - -
29/12:30pm 31.6 SE 13 18 1012.3 - 0.0 - - - - - - -
29/12:00pm 31.0 ESE 12 19 1012.8 - 0.0 - - - - - - -
29/11:30am 30.3 ESE 14 19 1013.3 - 0.0 - - - - - - -
29/11:00am 29.9 ESE 13 21 1013.5 - 0.0 - - - - - - -
29/10:30am 29.2 ESE 15 21 1013.8 - 0.0 - - - - - - -
29/10:00am 28.5 SE 15 20 1013.9 - 0.0 - - - - - - -
29/09:30am 27.6 ESE 14 20 1014.1 - 0.0 - - - - - - -
29/09:00am 26.6 ESE 10 14 1014.0 - 0.0 - - - - - - -
29/08:30am 25.1 SSE 8 11 1013.7 - 0.0 - - - - - - -
29/08:00am 22.3 SSE 4 5 1013.7 - 0.0 - - - - - - -
29/07:30am 21.2 S 1 3 1013.5 - 0.0 - - - - - - -
29/07:00am 21.5 SSE 6 8 1013.1 - 0.0 - - - - - - -
29/06:30am 20.6 SE 6 6 1013.1 - 0.0 - - - - - - -
29/06:00am 20.0 SE 6 7 1012.9 - 0.0 - - - - - - -
29/05:30am 20.4 SE 5 7 1012.8 - 0.0 - - - - - - -
29/05:00am 20.9 SE 6 7 1012.8 - 0.0 - - - - - - -
29/04:30am 20.4 SE 5 7 1012.8 - 0.0 - - - - - - -
29/04:00am 20.1 SE 6 7 1012.8 - 0.0 - - - - - - -
29/03:30am 20.1 SE 5 6 1012.9 - 0.0 - - - - - - -
29/03:00am 20.5 ESE 5 5 1013.2 - 0.0 - - - - - - -
29/02:30am 20.8 ESE 5 6 1013.4 - 0.0 - - - - - - -
29/02:00am 21.2 ESE 6 6 1013.7 - 0.0 - - - - - - -
29/01:30am 21.8 ESE 6 7 1013.9 - 0.0 - - - - - - -
29/01:00am 22.7 SE 7 8 1014.0 - 0.0 - - - - - - -
29/12:30am 23.5 SE 8 11 1014.1 - 0.0 - - - - - - -
29/12:00am 23.9 SE 8 11 1014.2 - 0.0 - - - - - - -
 
Date/Time
CST
Temp
°C
Wind Pressure Rain since
9am
mm
Weather Cloud Vis
km
Sea
Height
m
Swell
Dir  Spd
kts
Gust
kts
hPa Trend Height
m
Period
s
Dir
28/11:30pm 24.5 SE 9 11 1014.2 - 0.0 - - - - - - -
28/11:00pm 24.8 SSE 9 12 1014.1 - 0.0 - - - - - - -
28/10:30pm 25.3 SSE 9 14 1014.0 - 0.0 - - - - - - -
28/10:00pm 25.7 SSE 8 11 1014.0 - 0.0 - - - - - - -
28/09:30pm 24.7 SSE 8 11 1013.8 - 0.0 - - - - - - -
28/09:00pm 23.0 S 4 5 1013.5 - 0.0 - - - - - - -
28/08:30pm 23.3 SSW 4 5 1013.0 - 0.0 - - - - - - -
28/08:00pm 24.5 SSW 4 5 1012.7 - 0.0 - - - - - - -
28/07:30pm 26.5 S 5 6 1012.2 - 0.0 - - - - - - -
28/07:00pm 27.7 SSE 5 6 1011.8 - 0.0 - - - - - - -
28/06:30pm 29.5 SSE 6 8 1011.4 - 0.0 - - - - - - -
28/06:00pm 30.9 SE 6 10 1011.0 - 0.0 - - - - - - -
28/05:30pm 31.5 ESE 6 10 1010.8 - 0.0 - - - - - - -
28/05:00pm 31.4 E 5 8 1010.5 - 0.0 - - - - - - -
28/04:30pm 31.7 ENE 7 11 1010.5 - 0.0 - - - - - - -
28/04:00pm 31.7 ENE 10 14 1010.5 - 0.0 - - - - - - -
28/03:30pm 32.1 E 10 15 1010.7 - 0.0 - - - - - - -
28/03:00pm 32.0 E 11 16 1011.1 - 0.0 - - - - - - -
28/02:30pm 31.6 E 9 16 1011.5 - 0.0 - - - - - - -
28/02:00pm 31.7 E 12 17 1011.8 - 0.0 - - - - - - -
28/01:30pm 31.0 ESE 10 15 1012.4 - 0.0 - - - - - - -
28/01:00pm 30.1 SE 12 19 1012.9 - 0.0 - - - - - - -
28/12:30pm 29.6 SE 13 19 1013.2 - 0.0 - - - - - - -
28/12:00pm 29.1 SE 15 19 1013.9 - 0.0 - - - - - - -
28/11:30am 28.4 SE 14 24 1014.4 - 0.0 - - - - - - -
28/11:00am 27.7 SE 15 20 1014.7 - 0.0 - - - - - - -
28/10:40am 26.8 SE 15 26 1014.9 - 0.0 - - - - - - -
28/10:30am 26.7 SE 16 22 1015.1 - 0.0 - - - - - - -
28/10:00am 25.7 SSE 12 17 1015.5 - 0.0 - - - - - - -
28/09:30am 24.7 SSE 12 18 1015.9 - 0.0 - - - - - - -
28/09:00am 23.6 SSE 12 16 1015.9 - 0.0 - - - - - - -
28/08:30am 22.1 SSE 9 13 1015.9 - 0.0 - - - - - - -
28/08:00am 20.1 SSE 8 12 1015.7 - 0.0 - - - - - - -
28/07:30am 18.2 SSE 7 8 1015.5 - 0.0 - - - - - - -
28/07:00am 17.8 S 7 8 1015.2 - 0.0 - - - - - - -
28/06:30am 18.1 SSE 7 8 1014.8 - 0.0 - - - - - - -
28/06:00am 18.6 SSE 7 8 1014.5 - 0.0 - - - - - - -
28/05:30am 19.2 SE 8 9 1014.3 - 0.0 - - - - - - -
28/05:00am 19.5 SE 8 11 1014.3 - 0.0 - - - - - - -
28/04:30am 19.3 SE 8 10 1014.1 - 0.0 - - - - - - -

Other Formats:

Comma delimited format used in spreadsheet applications
http://www.bom.gov.au/fwo/IDD60701/IDD60701.94127.axf

JavaScript Object Notation format (JSON) in row-major order
http://www.bom.gov.au/fwo/IDD60701/IDD60701.94127.json